sensor_id;sensor_type;location;lat;lon;timestamp;pressure;altitude;pressure_sealevel;temperature;humidity
10008;BME280;5043;41.766;26.204;2024-02-28T03:03:25;101599.41;;;7.17;100.00
10008;BME280;5043;41.766;26.204;2024-02-28T03:05:50;101597.63;;;6.97;100.00
10008;BME280;5043;41.766;26.204;2024-02-28T03:08:16;101601.63;;;6.85;100.00
10008;BME280;5043;41.766;26.204;2024-02-28T03:10:41;101529.03;;;6.26;100.00
10008;BME280;5043;41.766;26.204;2024-02-28T03:13:07;101586.59;;;6.49;100.00
10008;BME280;5043;41.766;26.204;2024-02-28T03:15:33;101573.22;;;6.33;100.00
10008;BME280;5043;41.766;26.204;2024-02-28T03:17:59;101603.47;;;6.42;100.00
10008;BME280;5043;41.766;26.204;2024-02-28T03:20:24;101601.16;;;6.34;100.00
10008;BME280;5043;41.766;26.204;2024-02-28T03:22:51;101607.00;;;6.41;100.00
10008;BME280;5043;41.766;26.204;2024-02-28T03:25:16;101612.13;;;6.44;100.00
10008;BME280;5043;41.766;26.204;2024-02-28T03:27:42;101607.97;;;6.38;100.00
10008;BME280;5043;41.766;26.204;2024-02-28T03:30:08;101608.81;;;6.39;100.00
10008;BME280;5043;41.766;26.204;2024-02-28T03:32:33;101616.75;;;6.37;100.00
10008;BME280;5043;41.766;26.204;2024-02-28T03:34:59;101596.22;;;6.27;100.00
10008;BME280;5043;41.766;26.204;2024-02-28T03:37:25;101632.34;;;6.40;100.00
10008;BME280;5043;41.766;26.204;2024-02-28T03:39:51;101620.06;;;6.42;100.00
10008;BME280;5043;41.766;26.204;2024-02-28T03:42:16;101631.84;;;6.52;100.00
10008;BME280;5043;41.766;26.204;2024-02-28T03:44:42;101612.22;;;6.41;100.00
10008;BME280;5043;41.766;26.204;2024-02-28T03:47:07;101638.06;;;6.50;100.00
10008;BME280;5043;41.766;26.204;2024-02-28T03:49:32;101625.16;;;6.23;100.00
10008;BME280;5043;41.766;26.204;2024-02-28T03:51:58;101632.72;;;6.31;100.00
10008;BME280;5043;41.766;26.204;2024-02-28T03:54:23;101621.91;;;6.17;100.00
10008;BME280;5043;41.766;26.204;2024-02-28T03:56:49;101621.78;;;5.98;100.00
10008;BME280;5043;41.766;26.204;2024-02-28T03:59:14;101634.19;;;5.93;100.00
10008;BME280;5043;41.766;26.204;2024-02-28T04:01:39;101639.63;;;5.64;100.00
10008;BME280;5043;41.766;26.204;2024-02-28T04:04:05;101646.44;;;5.68;100.00
10008;BME280;5043;41.766;26.204;2024-02-28T04:06:30;101657.59;;;5.50;100.00
10008;BME280;5043;41.766;26.204;2024-02-28T04:08:56;101656.09;;;5.43;100.00
10008;BME280;5043;41.766;26.204;2024-02-28T04:11:21;101658.09;;;5.36;100.00
10008;BME280;5043;41.766;26.204;2024-02-28T04:13:46;101622.22;;;5.15;100.00
10008;BME280;5043;41.766;26.204;2024-02-28T04:16:12;101625.72;;;5.14;100.00
10008;BME280;5043;41.766;26.204;2024-02-28T04:18:38;101632.50;;;5.20;100.00
10008;BME280;5043;41.766;26.204;2024-02-28T04:21:03;101625.53;;;5.20;100.00
10008;BME280;5043;41.766;26.204;2024-02-28T04:23:29;101648.69;;;5.31;100.00
10008;BME280;5043;41.766;26.204;2024-02-28T04:25:54;101659.84;;;5.36;100.00
10008;BME280;5043;41.766;26.204;2024-02-28T04:28:20;101641.28;;;5.42;100.00
10008;BME280;5043;41.766;26.204;2024-02-28T04:30:45;101636.13;;;5.40;100.00
10008;BME280;5043;41.766;26.204;2024-02-28T04:33:10;101654.88;;;5.53;100.00
10008;BME280;5043;41.766;26.204;2024-02-28T04:35:36;101650.38;;;5.56;100.00
10008;BME280;5043;41.766;26.204;2024-02-28T04:38:01;101651.28;;;5.55;100.00
10008;BME280;5043;41.766;26.204;2024-02-28T04:40:27;101664.78;;;5.68;100.00
10008;BME280;5043;41.766;26.204;2024-02-28T04:42:52;101633.25;;;5.48;100.00
10008;BME280;5043;41.766;26.204;2024-02-28T04:45:18;101597.06;;;5.36;100.00
10008;BME280;5043;41.766;26.204;2024-02-28T04:47:43;101657.34;;;5.81;100.00
10008;BME280;5043;41.766;26.204;2024-02-28T04:50:09;101666.88;;;5.82;100.00
10008;BME280;5043;41.766;26.204;2024-02-28T04:52:35;101650.63;;;5.74;100.00
10008;BME280;5043;41.766;26.204;2024-02-28T04:55:01;101666.09;;;5.80;100.00
10008;BME280;5043;41.766;26.204;2024-02-28T04:57:26;101645.31;;;5.75;100.00
10008;BME280;5043;41.766;26.204;2024-02-28T04:59:52;101658.09;;;5.84;100.00
10008;BME280;5043;41.766;26.204;2024-02-28T05:02:17;101675.59;;;5.82;100.00
10008;BME280;5043;41.766;26.204;2024-02-28T05:04:43;101667.56;;;5.88;100.00
10008;BME280;5043;41.766;26.204;2024-02-28T05:07:09;101664.88;;;5.90;100.00
10008;BME280;5043;41.766;26.204;2024-02-28T05:09:34;101675.25;;;5.93;100.00
10008;BME280;5043;41.766;26.204;2024-02-28T05:12:00;101667.25;;;5.96;100.00
10008;BME280;5043;41.766;26.204;2024-02-28T05:14:26;101613.66;;;5.58;100.00
10008;BME280;5043;41.766;26.204;2024-02-28T05:16:51;101675.97;;;5.96;100.00
10008;BME280;5043;41.766;26.204;2024-02-28T05:19:17;101684.41;;;6.04;100.00
10008;BME280;5043;41.766;26.204;2024-02-28T05:21:45;101676.75;;;5.98;100.00
10008;BME280;5043;41.766;26.204;2024-02-28T05:24:11;101676.66;;;6.01;100.00
10008;BME280;5043;41.766;26.204;2024-02-28T05:26:37;101705.06;;;6.12;100.00
10008;BME280;5043;41.766;26.204;2024-02-28T05:29:04;101677.78;;;6.17;100.00
10008;BME280;5043;41.766;26.204;2024-02-28T05:31:30;101685.34;;;6.25;100.00
10008;BME280;5043;41.766;26.204;2024-02-28T05:34:00;101669.03;;;6.18;100.00
10008;BME280;5043;41.766;26.204;2024-02-28T05:36:28;101682.31;;;6.36;100.00
10008;BME280;5043;41.766;26.204;2024-02-28T05:38:54;101696.09;;;6.41;100.00
10008;BME280;5043;41.766;26.204;2024-02-28T05:41:20;101695.97;;;6.44;100.00
10008;BME280;5043;41.766;26.204;2024-02-28T05:43:47;101678.88;;;6.35;100.00
10008;BME280;5043;41.766;26.204;2024-02-28T05:46:13;101665.75;;;6.35;100.00
10008;BME280;5043;41.766;26.204;2024-02-28T05:48:45;101703.56;;;6.51;100.00
10008;BME280;5043;41.766;26.204;2024-02-28T05:51:11;101703.38;;;6.56;100.00
10008;BME280;5043;41.766;26.204;2024-02-28T05:53:38;101726.72;;;6.62;100.00
10008;BME280;5043;41.766;26.204;2024-02-28T05:56:06;101698.50;;;6.47;100.00
10008;BME280;5043;41.766;26.204;2024-02-28T05:58:42;101711.53;;;6.48;100.00
10008;BME280;5043;41.766;26.204;2024-02-28T06:01:09;101708.72;;;6.53;100.00
10008;BME280;5043;41.766;26.204;2024-02-28T06:03:34;101712.13;;;6.55;100.00
10008;BME280;5043;41.766;26.204;2024-02-28T06:06:00;101736.84;;;6.49;100.00
10008;BME280;5043;41.766;26.204;2024-02-28T06:08:26;101706.94;;;6.32;100.00
10008;BME280;5043;41.766;26.204;2024-02-28T06:10:51;101719.00;;;6.36;100.00
10008;BME280;5043;41.766;26.204;2024-02-28T06:13:18;101729.00;;;6.48;100.00
10008;BME280;5043;41.766;26.204;2024-02-28T06:15:43;101706.53;;;6.42;100.00
10008;BME280;5043;41.766;26.204;2024-02-28T06:18:09;101723.66;;;6.51;100.00
10008;BME280;5043;41.766;26.204;2024-02-28T06:20:34;101708.97;;;6.47;100.00
10008;BME280;5043;41.766;26.204;2024-02-28T06:23:00;101732.44;;;6.71;100.00
10008;BME280;5043;41.766;26.204;2024-02-28T06:25:25;101724.91;;;6.85;100.00
10008;BME280;5043;41.766;26.204;2024-02-28T06:27:52;101669.16;;;6.59;100.00
10008;BME280;5043;41.766;26.204;2024-02-28T06:30:18;101723.19;;;6.84;100.00
10008;BME280;5043;41.766;26.204;2024-02-28T06:32:44;101732.28;;;6.98;100.00
10008;BME280;5043;41.766;26.204;2024-02-28T06:35:09;101732.34;;;6.96;100.00
10008;BME280;5043;41.766;26.204;2024-02-28T06:37:35;101745.28;;;7.01;100.00
10008;BME280;5043;41.766;26.204;2024-02-28T06:40:02;101728.28;;;7.09;100.00
10008;BME280;5043;41.766;26.204;2024-02-28T06:42:29;101738.03;;;7.27;100.00
10008;BME280;5043;41.766;26.204;2024-02-28T06:44:55;101742.09;;;7.34;100.00
10008;BME280;5043;41.766;26.204;2024-02-28T06:47:21;101744.09;;;7.49;100.00
10008;BME280;5043;41.766;26.204;2024-02-28T06:49:47;101743.50;;;7.43;100.00
10008;BME280;5043;41.766;26.204;2024-02-28T06:52:13;101759.09;;;7.46;100.00
10008;BME280;5043;41.766;26.204;2024-02-28T06:54:39;101737.13;;;7.48;100.00
10008;BME280;5043;41.766;26.204;2024-02-28T06:57:04;101751.50;;;7.60;100.00
10008;BME280;5043;41.766;26.204;2024-02-28T06:59:30;101731.63;;;7.54;100.00
10008;BME280;5043;41.766;26.204;2024-02-28T07:01:56;101727.94;;;7.58;100.00
10008;BME280;5043;41.766;26.204;2024-02-28T07:04:22;101719.94;;;7.61;100.00
10008;BME280;5043;41.766;26.204;2024-02-28T07:06:47;101750.13;;;7.92;100.00
10008;BME280;5043;41.766;26.204;2024-02-28T07:09:13;101747.94;;;7.81;100.00
10008;BME280;5043;41.766;26.204;2024-02-28T07:11:40;101779.69;;;7.97;100.00
10008;BME280;5043;41.766;26.204;2024-02-28T07:14:07;101746.72;;;7.90;100.00
10008;BME280;5043;41.766;26.204;2024-02-28T07:16:33;101766.06;;;8.07;100.00
10008;BME280;5043;41.766;26.204;2024-02-28T07:19:02;101762.81;;;8.21;100.00
10008;BME280;5043;41.766;26.204;2024-02-28T07:21:28;101774.25;;;8.20;100.00
10008;BME280;5043;41.766;26.204;2024-02-28T07:23:55;101759.25;;;8.22;100.00
10008;BME280;5043;41.766;26.204;2024-02-28T07:26:21;101758.22;;;8.26;100.00
10008;BME280;5043;41.766;26.204;2024-02-28T07:28:46;101764.22;;;8.29;100.00
10008;BME280;5043;41.766;26.204;2024-02-28T07:31:16;101770.13;;;8.35;100.00
10008;BME280;5043;41.766;26.204;2024-02-28T07:33:42;101777.00;;;8.56;100.00
10008;BME280;5043;41.766;26.204;2024-02-28T07:36:07;101778.16;;;8.69;100.00
10008;BME280;5043;41.766;26.204;2024-02-28T07:38:33;101768.31;;;8.72;100.00
10008;BME280;5043;41.766;26.204;2024-02-28T07:40:59;101773.44;;;8.75;100.00
10008;BME280;5043;41.766;26.204;2024-02-28T07:43:24;101667.97;;;8.25;100.00
10008;BME280;5043;41.766;26.204;2024-02-28T07:45:50;101765.88;;;8.86;100.00
10008;BME280;5043;41.766;26.204;2024-02-28T07:48:15;101773.88;;;8.85;100.00
10008;BME280;5043;41.766;26.204;2024-02-28T07:50:44;101774.16;;;8.97;100.00
10008;BME280;5043;41.766;26.204;2024-02-28T07:53:10;101772.91;;;9.05;100.00
10008;BME280;5043;41.766;26.204;2024-02-28T07:55:35;101774.44;;;9.27;100.00
10008;BME280;5043;41.766;26.204;2024-02-28T07:58:00;101771.41;;;9.35;100.00
10008;BME280;5043;41.766;26.204;2024-02-28T08:00:26;101779.25;;;9.53;100.00
10008;BME280;5043;41.766;26.204;2024-02-28T08:02:52;101738.25;;;9.48;100.00
10008;BME280;5043;41.766;26.204;2024-02-28T08:05:17;101781.28;;;9.65;100.00
10008;BME280;5043;41.766;26.204;2024-02-28T08:07:43;101773.19;;;9.68;100.00
10008;BME280;5043;41.766;26.204;2024-02-28T08:10:09;101784.81;;;9.64;100.00
10008;BME280;5043;41.766;26.204;2024-02-28T08:12:36;101769.50;;;9.73;100.00
10008;BME280;5043;41.766;26.204;2024-02-28T08:15:05;101781.81;;;9.89;100.00
10008;BME280;5043;41.766;26.204;2024-02-28T08:17:30;101782.41;;;10.11;100.00
10008;BME280;5043;41.766;26.204;2024-02-28T08:19:56;101782.16;;;10.16;100.00
10008;BME280;5043;41.766;26.204;2024-02-28T08:22:21;101777.19;;;10.10;100.00
10008;BME280;5043;41.766;26.204;2024-02-28T08:24:51;101761.25;;;9.96;100.00
10008;BME280;5043;41.766;26.204;2024-02-28T08:27:16;101760.81;;;10.20;100.00
10008;BME280;5043;41.766;26.204;2024-02-28T08:29:42;101767.75;;;10.38;100.00
10008;BME280;5043;41.766;26.204;2024-02-28T08:32:10;101764.97;;;10.57;100.00
10008;BME280;5043;41.766;26.204;2024-02-28T08:34:36;101764.03;;;10.74;100.00
10008;BME280;5043;41.766;26.204;2024-02-28T08:37:03;101767.19;;;10.80;100.00
10008;BME280;5043;41.766;26.204;2024-02-28T08:39:29;101767.53;;;10.90;100.00
10008;BME280;5043;41.766;26.204;2024-02-28T08:41:54;101743.91;;;11.02;100.00
10008;BME280;5043;41.766;26.204;2024-02-28T08:44:20;101775.88;;;11.43;98.53
10008;BME280;5043;41.766;26.204;2024-02-28T08:46:49;101781.88;;;11.61;97.70
10008;BME280;5043;41.766;26.204;2024-02-28T08:49:15;101777.38;;;11.93;96.73
10008;BME280;5043;41.766;26.204;2024-02-28T08:51:40;101777.38;;;12.21;95.05
10008;BME280;5043;41.766;26.204;2024-02-28T08:54:06;101773.22;;;12.31;93.77
10008;BME280;5043;41.766;26.204;2024-02-28T08:56:32;101780.19;;;12.60;93.28
10008;BME280;5043;41.766;26.204;2024-02-28T08:58:59;101779.94;;;12.91;92.23
10008;BME280;5043;41.766;26.204;2024-02-28T09:01:24;101782.94;;;13.14;90.66
10008;BME280;5043;41.766;26.204;2024-02-28T09:03:50;101782.06;;;13.40;89.07
10008;BME280;5043;41.766;26.204;2024-02-28T09:06:16;101776.34;;;13.33;87.58
10008;BME280;5043;41.766;26.204;2024-02-28T09:08:41;101768.88;;;13.65;87.27
10008;BME280;5043;41.766;26.204;2024-02-28T09:11:07;101779.94;;;13.84;86.07
10008;BME280;5043;41.766;26.204;2024-02-28T09:13:33;101755.75;;;13.89;85.05
10008;BME280;5043;41.766;26.204;2024-02-28T09:16:01;101771.38;;;14.18;83.43
10008;BME280;5043;41.766;26.204;2024-02-28T09:18:27;101778.34;;;14.44;82.01
10008;BME280;5043;41.766;26.204;2024-02-28T09:20:52;101777.41;;;14.58;81.28
10008;BME280;5043;41.766;26.204;2024-02-28T09:23:18;101774.47;;;14.74;80.36
10008;BME280;5043;41.766;26.204;2024-02-28T09:25:44;101777.47;;;14.57;80.15
10008;BME280;5043;41.766;26.204;2024-02-28T09:28:10;101765.81;;;14.46;81.32
10008;BME280;5043;41.766;26.204;2024-02-28T09:30:38;101771.19;;;14.70;80.24
10008;BME280;5043;41.766;26.204;2024-02-28T09:33:04;101778.66;;;14.89;78.99
10008;BME280;5043;41.766;26.204;2024-02-28T09:35:29;101763.19;;;15.06;76.58
10008;BME280;5043;41.766;26.204;2024-02-28T09:37:55;101773.16;;;15.39;74.29
10008;BME280;5043;41.766;26.204;2024-02-28T09:40:22;101767.25;;;15.81;71.78
10008;BME280;5043;41.766;26.204;2024-02-28T09:42:52;101770.00;;;16.15;66.98
10008;BME280;5043;41.766;26.204;2024-02-28T09:45:21;101745.03;;;16.05;66.92
10008;BME280;5043;41.766;26.204;2024-02-28T09:47:48;101760.53;;;16.33;65.19
10008;BME280;5043;41.766;26.204;2024-02-28T09:50:14;101759.56;;;16.67;62.99
10008;BME280;5043;41.766;26.204;2024-02-28T09:52:40;101745.75;;;16.84;60.40
10008;BME280;5043;41.766;26.204;2024-02-28T09:55:06;101753.91;;;17.35;57.50
10008;BME280;5043;41.766;26.204;2024-02-28T09:57:32;101722.16;;;17.64;55.44
10008;BME280;5043;41.766;26.204;2024-02-28T10:00:00;101734.09;;;18.11;52.15
10008;BME280;5043;41.766;26.204;2024-02-28T10:02:26;101717.59;;;18.66;49.96
10008;BME280;5043;41.766;26.204;2024-02-28T10:04:53;101702.16;;;18.89;47.96
10008;BME280;5043;41.766;26.204;2024-02-28T10:07:21;101702.84;;;18.91;47.26
10008;BME280;5043;41.766;26.204;2024-02-28T10:09:47;101709.88;;;19.11;46.45
10008;BME280;5043;41.766;26.204;2024-02-28T10:12:12;101704.00;;;19.46;46.25
10008;BME280;5043;41.766;26.204;2024-02-28T10:14:38;101686.16;;;19.83;44.75
10008;BME280;5043;41.766;26.204;2024-02-28T10:17:04;101665.50;;;19.56;44.57
10008;BME280;5043;41.766;26.204;2024-02-28T10:19:30;101681.63;;;19.83;45.00
10008;BME280;5043;41.766;26.204;2024-02-28T10:21:56;101690.63;;;20.02;44.78
10008;BME280;5043;41.766;26.204;2024-02-28T10:24:24;101679.59;;;20.05;44.47
10008;BME280;5043;41.766;26.204;2024-02-28T10:26:49;101651.19;;;19.84;45.02
10008;BME280;5043;41.766;26.204;2024-02-28T10:29:24;101673.09;;;20.07;44.57
10008;BME280;5043;41.766;26.204;2024-02-28T10:31:55;101655.06;;;20.36;43.98
10008;BME280;5043;41.766;26.204;2024-02-28T10:34:20;101662.81;;;20.39;44.44
10008;BME280;5043;41.766;26.204;2024-02-28T10:36:46;101679.94;;;20.91;43.64
10008;BME280;5043;41.766;26.204;2024-02-28T10:39:13;101626.81;;;21.12;42.45
10008;BME280;5043;41.766;26.204;2024-02-28T10:41:39;101650.66;;;21.33;41.88
10008;BME280;5043;41.766;26.204;2024-02-28T10:44:05;101607.75;;;20.80;41.49
10008;BME280;5043;41.766;26.204;2024-02-28T10:46:31;101640.19;;;21.04;40.90
10008;BME280;5043;41.766;26.204;2024-02-28T10:48:57;101636.31;;;21.24;40.83
10008;BME280;5043;41.766;26.204;2024-02-28T10:51:26;101633.41;;;21.36;41.31
10008;BME280;5043;41.766;26.204;2024-02-28T10:54:11;101627.56;;;21.40;41.52
10008;BME280;5043;41.766;26.204;2024-02-28T10:56:39;101624.50;;;21.86;40.59
10008;BME280;5043;41.766;26.204;2024-02-28T10:59:10;101623.53;;;22.45;38.99
10008;BME280;5043;41.766;26.204;2024-02-28T11:01:37;101608.78;;;22.57;38.30
10008;BME280;5043;41.766;26.204;2024-02-28T11:04:03;101553.94;;;22.50;38.07
10008;BME280;5043;41.766;26.204;2024-02-28T11:06:29;101584.59;;;22.66;37.97
10008;BME280;5043;41.766;26.204;2024-02-28T11:08:59;101598.22;;;22.96;37.32
10008;BME280;5043;41.766;26.204;2024-02-28T11:11:29;101586.25;;;23.15;35.79
10008;BME280;5043;41.766;26.204;2024-02-28T11:13:57;101591.63;;;23.55;35.86
10008;BME280;5043;41.766;26.204;2024-02-28T11:16:32;101588.41;;;23.99;35.41
10008;BME280;5043;41.766;26.204;2024-02-28T11:18:59;101584.53;;;24.40;35.65
10008;BME280;5043;41.766;26.204;2024-02-28T11:21:26;101588.72;;;24.42;35.09
10008;BME280;5043;41.766;26.204;2024-02-28T11:23:57;101576.31;;;24.56;34.83
10008;BME280;5043;41.766;26.204;2024-02-28T11:26:23;101580.16;;;24.62;34.61
10008;BME280;5043;41.766;26.204;2024-02-28T11:28:49;101577.44;;;24.39;34.26
10008;BME280;5043;41.766;26.204;2024-02-28T11:31:15;101564.25;;;24.67;34.31
10008;BME280;5043;41.766;26.204;2024-02-28T11:33:42;101559.31;;;25.15;31.92
10008;BME280;5043;41.766;26.204;2024-02-28T11:36:07;101561.41;;;25.57;31.39
10008;BME280;5043;41.766;26.204;2024-02-28T11:38:36;101562.28;;;26.08;30.74
10008;BME280;5043;41.766;26.204;2024-02-28T11:41:04;101566.66;;;26.45;29.80
10008;BME280;5043;41.766;26.204;2024-02-28T11:43:31;101554.78;;;26.82;29.09
10008;BME280;5043;41.766;26.204;2024-02-28T11:45:58;101544.41;;;26.92;29.00
10008;BME280;5043;41.766;26.204;2024-02-28T11:48:24;101545.78;;;27.02;28.80
10008;BME280;5043;41.766;26.204;2024-02-28T11:50:51;101546.19;;;27.06;28.19
10008;BME280;5043;41.766;26.204;2024-02-28T11:53:18;101539.41;;;27.44;27.83
10008;BME280;5043;41.766;26.204;2024-02-28T11:55:45;101536.25;;;27.81;27.17
10008;BME280;5043;41.766;26.204;2024-02-28T11:58:13;101532.66;;;28.15;26.07
10008;BME280;5043;41.766;26.204;2024-02-28T12:00:51;101532.75;;;28.68;25.54
10008;BME280;5043;41.766;26.204;2024-02-28T12:03:21;101528.13;;;29.34;24.80
10008;BME280;5043;41.766;26.204;2024-02-28T12:05:47;101509.94;;;29.98;24.46
10008;BME280;5043;41.766;26.204;2024-02-28T12:08:14;101517.63;;;30.01;23.19
10008;BME280;5043;41.766;26.204;2024-02-28T12:10:39;101521.13;;;30.77;22.44
10008;BME280;5043;41.766;26.204;2024-02-28T12:13:05;101523.56;;;31.71;21.26
10008;BME280;5043;41.766;26.204;2024-02-28T12:15:33;101511.34;;;32.10;21.10
10008;BME280;5043;41.766;26.204;2024-02-28T12:17:58;101527.13;;;32.49;21.12
10008;BME280;5043;41.766;26.204;2024-02-28T12:20:24;101504.50;;;33.18;20.38
10008;BME280;5043;41.766;26.204;2024-02-28T12:22:50;101517.47;;;34.42;19.87
10008;BME280;5043;41.766;26.204;2024-02-28T12:25:15;101508.06;;;35.38;18.56
10008;BME280;5043;41.766;26.204;2024-02-28T12:27:41;101513.16;;;36.42;17.69
10008;BME280;5043;41.766;26.204;2024-02-28T12:30:08;101506.06;;;37.20;17.14
10008;BME280;5043;41.766;26.204;2024-02-28T12:32:33;101509.00;;;38.32;16.11
10008;BME280;5043;41.766;26.204;2024-02-28T12:35:00;101506.78;;;38.39;15.92
10008;BME280;5043;41.766;26.204;2024-02-28T12:37:25;101491.47;;;37.19;16.21
10008;BME280;5043;41.766;26.204;2024-02-28T12:39:51;101495.47;;;36.07;17.39
10008;BME280;5043;41.766;26.204;2024-02-28T12:42:18;101495.16;;;34.83;18.52
10008;BME280;5043;41.766;26.204;2024-02-28T12:44:43;101490.75;;;33.76;19.20
10008;BME280;5043;41.766;26.204;2024-02-28T12:47:12;101477.97;;;32.95;19.84
10008;BME280;5043;41.766;26.204;2024-02-28T12:49:38;101482.84;;;32.58;20.69
10008;BME280;5043;41.766;26.204;2024-02-28T12:52:04;101480.97;;;33.05;20.15
10008;BME280;5043;41.766;26.204;2024-02-28T12:54:30;101480.44;;;33.43;19.94
10008;BME280;5043;41.766;26.204;2024-02-28T12:56:56;101466.66;;;32.69;20.37
10008;BME280;5043;41.766;26.204;2024-02-28T12:59:21;101473.25;;;31.97;21.08
10008;BME280;5043;41.766;26.204;2024-02-28T13:01:47;101473.69;;;31.64;20.90
10008;BME280;5043;41.766;26.204;2024-02-28T13:04:13;101458.97;;;30.86;21.49
10008;BME280;5043;41.766;26.204;2024-02-28T13:06:39;101472.66;;;29.99;22.81
10008;BME280;5043;41.766;26.204;2024-02-28T13:09:05;101462.50;;;29.74;22.98
10008;BME280;5043;41.766;26.204;2024-02-28T13:11:37;101460.41;;;30.14;22.38
10008;BME280;5043;41.766;26.204;2024-02-28T13:14:03;101464.78;;;30.96;21.75
10008;BME280;5043;41.766;26.204;2024-02-28T13:16:29;101475.91;;;31.55;21.19
10008;BME280;5043;41.766;26.204;2024-02-28T13:18:55;101472.22;;;31.98;20.67
10008;BME280;5043;41.766;26.204;2024-02-28T13:21:21;101452.00;;;32.40;19.91
10008;BME280;5043;41.766;26.204;2024-02-28T13:23:47;101472.56;;;32.42;20.02
10008;BME280;5043;41.766;26.204;2024-02-28T13:26:12;101468.09;;;32.83;19.38
10008;BME280;5043;41.766;26.204;2024-02-28T13:28:46;101457.50;;;34.29;18.40
10008;BME280;5043;41.766;26.204;2024-02-28T13:31:12;101469.97;;;35.63;17.37
10008;BME280;5043;41.766;26.204;2024-02-28T13:33:38;101469.31;;;35.56;17.35
10008;BME280;5043;41.766;26.204;2024-02-28T13:36:10;101467.00;;;34.71;18.40
10008;BME280;5043;41.766;26.204;2024-02-28T13:38:36;101467.84;;;34.10;18.87
10008;BME280;5043;41.766;26.204;2024-02-28T13:41:02;101447.53;;;33.27;19.74
10008;BME280;5043;41.766;26.204;2024-02-28T13:43:27;101423.47;;;32.36;19.83
10008;BME280;5043;41.766;26.204;2024-02-28T13:45:53;101458.91;;;32.01;19.75
10008;BME280;5043;41.766;26.204;2024-02-28T13:48:26;101447.00;;;32.37;18.86
10008;BME280;5043;41.766;26.204;2024-02-28T13:50:55;101455.13;;;32.78;18.56
10008;BME280;5043;41.766;26.204;2024-02-28T13:53:21;101446.47;;;32.81;18.68
10008;BME280;5043;41.766;26.204;2024-02-28T13:55:47;101442.44;;;33.07;18.39
10008;BME280;5043;41.766;26.204;2024-02-28T13:58:14;101444.56;;;32.58;19.01
10008;BME280;5043;41.766;26.204;2024-02-28T14:00:46;101453.16;;;31.25;20.30
10008;BME280;5043;41.766;26.204;2024-02-28T14:03:12;101449.66;;;30.50;20.88
10008;BME280;5043;41.766;26.204;2024-02-28T14:05:38;101452.16;;;30.77;20.51
10008;BME280;5043;41.766;26.204;2024-02-28T14:08:04;101406.31;;;31.10;20.34
10008;BME280;5043;41.766;26.204;2024-02-28T14:10:33;101437.88;;;31.72;19.92
10008;BME280;5043;41.766;26.204;2024-02-28T14:12:58;101446.13;;;31.83;19.98
10008;BME280;5043;41.766;26.204;2024-02-28T14:15:24;101447.91;;;31.05;20.71
10008;BME280;5043;41.766;26.204;2024-02-28T14:17:50;101445.19;;;30.31;21.60
10008;BME280;5043;41.766;26.204;2024-02-28T14:20:17;101449.03;;;29.42;22.70
10008;BME280;5043;41.766;26.204;2024-02-28T14:22:43;101448.56;;;28.61;23.60
10008;BME280;5043;41.766;26.204;2024-02-28T14:25:11;101447.56;;;27.88;23.95
10008;BME280;5043;41.766;26.204;2024-02-28T14:27:39;101420.78;;;27.12;24.86
10008;BME280;5043;41.766;26.204;2024-02-28T14:30:06;101437.09;;;26.63;25.43
10008;BME280;5043;41.766;26.204;2024-02-28T14:32:35;101440.00;;;25.98;26.72
10008;BME280;5043;41.766;26.204;2024-02-28T14:35:04;101440.31;;;25.38;27.22
10008;BME280;5043;41.766;26.204;2024-02-28T14:37:30;101438.31;;;25.11;27.65
10008;BME280;5043;41.766;26.204;2024-02-28T14:39:56;101443.31;;;24.62;28.41
10008;BME280;5043;41.766;26.204;2024-02-28T14:42:22;101436.19;;;24.09;28.97
10008;BME280;5043;41.766;26.204;2024-02-28T14:44:49;101438.47;;;23.89;29.54
10008;BME280;5043;41.766;26.204;2024-02-28T14:47:15;101441.38;;;23.57;30.21
10008;BME280;5043;41.766;26.204;2024-02-28T14:49:40;101439.09;;;23.38;30.61
10008;BME280;5043;41.766;26.204;2024-02-28T14:52:06;101439.34;;;23.12;31.15
10008;BME280;5043;41.766;26.204;2024-02-28T14:54:32;101441.66;;;22.69;31.98
10008;BME280;5043;41.766;26.204;2024-02-28T14:56:57;101441.66;;;22.36;32.72
10008;BME280;5043;41.766;26.204;2024-02-28T14:59:23;101443.28;;;22.13;33.39
10008;BME280;5043;41.766;26.204;2024-02-28T15:01:50;101439.94;;;21.95;34.12
10008;BME280;5043;41.766;26.204;2024-02-28T15:04:15;101450.09;;;21.67;34.77
10008;BME280;5043;41.766;26.204;2024-02-28T15:06:41;101431.69;;;21.39;35.33
10008;BME280;5043;41.766;26.204;2024-02-28T15:09:07;101441.38;;;21.23;35.78
10008;BME280;5043;41.766;26.204;2024-02-28T15:11:34;101431.72;;;21.05;36.36
10008;BME280;5043;41.766;26.204;2024-02-28T15:14:00;101430.38;;;20.83;36.90
10008;BME280;5043;41.766;26.204;2024-02-28T15:16:25;101439.53;;;20.73;37.19
10008;BME280;5043;41.766;26.204;2024-02-28T15:18:51;101434.91;;;20.57;37.61
10008;BME280;5043;41.766;26.204;2024-02-28T15:21:18;101439.00;;;20.43;37.83
10008;BME280;5043;41.766;26.204;2024-02-28T15:23:44;101439.72;;;20.28;38.28
10008;BME280;5043;41.766;26.204;2024-02-28T15:26:10;101444.41;;;20.16;38.56
10008;BME280;5043;41.766;26.204;2024-02-28T15:28:35;101440.13;;;20.06;38.64
10008;BME280;5043;41.766;26.204;2024-02-28T15:31:01;101434.31;;;19.93;38.98
10008;BME280;5043;41.766;26.204;2024-02-28T15:33:28;101436.63;;;19.87;39.43
10008;BME280;5043;41.766;26.204;2024-02-28T15:35:54;101445.25;;;19.81;39.63
10008;BME280;5043;41.766;26.204;2024-02-28T15:38:19;101448.44;;;19.67;39.84
10008;BME280;5043;41.766;26.204;2024-02-28T15:40:45;101435.16;;;19.48;40.24
10008;BME280;5043;41.766;26.204;2024-02-28T15:43:11;101438.34;;;19.34;40.50
10008;BME280;5043;41.766;26.204;2024-02-28T15:45:36;101446.50;;;19.33;40.54
10008;BME280;5043;41.766;26.204;2024-02-28T15:48:05;101436.88;;;19.12;40.88